Time;durP1;ratioP1;P1;durP2;ratioP2;P2;SDS_P1;SDS_P2;PMS_P1;PMS_P2;Temp;Humidity;BMP_temperature;BMP_pressure;BME280_temperature;BME280_humidity;BME280_pressure;Samples;Min_cycle;Max_cycle;Signal;HPM_P1;HPM_P2
2021/05/30 00:01:55;;;;;;;3.80;2.87;;;;;;;13.58;49.33;97358.56;5052359;28;20426;-67
2021/05/30 00:04:21;;;;;;;2.83;2.63;;;;;;;13.72;48.96;97361.50;5050424;28;20195;-67
2021/05/30 00:06:47;;;;;;;3.60;2.90;;;;;;;13.79;48.86;97359.81;5044341;28;20339;-67
2021/05/30 00:09:14;;;;;;;3.50;3.03;;;;;;;13.84;48.96;97357.50;5052439;28;20422;-67
2021/05/30 00:11:40;;;;;;;3.10;2.70;;;;;;;13.88;48.53;97364.06;5046357;28;20477;-67
2021/05/30 00:14:06;;;;;;;3.37;3.07;;;;;;;13.82;48.98;97360.28;5049045;28;20475;-67
2021/05/30 00:16:33;;;;;;;4.33;3.30;;;;;;;13.87;48.70;97359.78;5052075;28;20964;-67
2021/05/30 00:19:01;;;;;;;3.60;3.27;;;;;;;13.93;48.62;97353.84;5052172;28;20214;-67
2021/05/30 00:21:26;;;;;;;3.50;3.10;;;;;;;13.92;48.60;97354.84;5046389;28;20438;-67
2021/05/30 00:23:52;;;;;;;2.77;2.57;;;;;;;13.90;48.69;97353.38;5051412;28;20455;-69
2021/05/30 00:26:18;;;;;;;5.53;2.87;;;;;;;13.80;48.91;97361.47;5050568;28;20660;-68
2021/05/30 00:28:43;;;;;;;3.80;2.80;;;;;;;13.73;49.32;97355.22;5051824;28;20240;-67
2021/05/30 00:31:09;;;;;;;3.20;2.90;;;;;;;13.36;50.07;97358.19;5049894;28;20179;-68
2021/05/30 00:33:35;;;;;;;5.23;2.60;;;;;;;13.01;51.23;97352.31;5051947;28;20187;-68
2021/05/30 00:36:00;;;;;;;4.10;2.97;;;;;;;12.97;51.53;97353.63;5051712;28;20301;-67
2021/05/30 00:38:26;;;;;;;3.33;3.00;;;;;;;12.95;51.68;97350.34;5050156;28;20210;-68
2021/05/30 00:40:52;;;;;;;3.70;3.33;;;;;;;13.19;50.79;97364.47;5051569;28;20191;-67
2021/05/30 00:43:18;;;;;;;2.90;2.60;;;;;;;13.08;51.66;97357.72;5051227;28;20186;-67
2021/05/30 00:45:45;;;;;;;3.80;3.10;;;;;;;13.15;50.93;97363.16;5051814;28;20458;-67
2021/05/30 00:48:11;;;;;;;3.67;3.17;;;;;;;13.21;50.85;97357.25;5052130;28;20183;-67
2021/05/30 00:50:36;;;;;;;3.97;3.57;;;;;;;13.27;50.63;97350.50;5053157;28;20431;-67
2021/05/30 00:53:02;;;;;;;3.60;3.10;;;;;;;13.03;51.60;97360.06;5058473;28;20241;-67
2021/05/30 00:55:28;;;;;;;6.50;3.10;;;;;;;12.80;51.88;97359.84;5056405;28;20183;-68
2021/05/30 00:57:53;;;;;;;3.93;3.27;;;;;;;12.93;51.80;97365.47;5039011;28;20186;-67
2021/05/30 01:00:20;;;;;;;3.67;3.37;;;;;;;12.96;51.76;97362.50;5057461;28;20201;-67
2021/05/30 01:02:45;;;;;;;5.77;2.93;;;;;;;12.98;51.21;97367.59;5056878;28;20190;-67
2021/05/30 01:05:11;;;;;;;4.03;3.00;;;;;;;12.91;51.33;97362.16;5057241;28;20461;-68
2021/05/30 01:07:41;;;;;;;3.30;3.00;;;;;;;12.86;51.62;97364.44;5057471;28;20210;-68
2021/05/30 01:10:33;;;;;;;2.70;2.50;;;;;;;12.64;52.46;97366.72;5057749;28;20512;-68
2021/05/30 01:13:04;;;;;;;2.87;2.67;;;;;;;12.76;51.79;97369.88;5057329;28;20429;-68
2021/05/30 01:15:31;;;;;;;3.10;2.50;;;;;;;12.72;51.88;97374.66;5056592;28;20421;-68
2021/05/30 01:17:56;;;;;;;2.90;2.60;;;;;;;12.73;51.76;97371.00;5057874;28;20421;-68
2021/05/30 01:20:23;;;;;;;3.97;2.90;;;;;;;12.62;51.97;97376.56;5057272;28;20425;-67
2021/05/30 01:22:49;;;;;;;3.23;2.70;;;;;;;12.60;51.95;97370.69;5053428;28;20215;-68
2021/05/30 01:25:18;;;;;;;2.80;2.60;;;;;;;12.34;52.46;97366.34;5056707;28;20526;-68
2021/05/30 01:27:44;;;;;;;6.10;2.67;;;;;;;12.33;52.69;97367.31;5038755;28;20441;-68
2021/05/30 01:30:10;;;;;;;8.70;2.73;;;;;;;12.38;52.60;97362.38;5057889;28;20421;-68
2021/05/30 01:32:36;;;;;;;6.27;3.13;;;;;;;12.35;52.72;97361.91;5056487;28;20791;-68
2021/05/30 01:35:02;;;;;;;3.00;2.67;;;;;;;12.26;53.23;97359.25;5058057;28;20413;-67
2021/05/30 01:37:29;;;;;;;2.90;2.70;;;;;;;12.34;52.81;97358.47;5055888;28;20684;-69
2021/05/30 01:39:55;;;;;;;4.40;3.17;;;;;;;12.36;52.58;97364.34;5048141;28;20422;-68
2021/05/30 01:42:20;;;;;;;3.67;3.37;;;;;;;12.34;52.63;97366.34;5052333;28;20199;-68
2021/05/30 01:44:46;;;;;;;3.90;2.90;;;;;;;12.39;52.68;97369.28;5056889;28;20237;-69
2021/05/30 01:47:12;;;;;;;3.30;2.87;;;;;;;12.34;52.74;97376.84;5057991;28;20578;-68
2021/05/30 01:49:37;;;;;;;5.17;3.07;;;;;;;12.47;52.30;97371.13;5057281;28;20188;-69
2021/05/30 01:52:04;;;;;;;4.03;3.20;;;;;;;12.38;52.96;97372.09;5052464;28;20681;-69
2021/05/30 01:54:30;;;;;;;3.23;2.93;;;;;;;12.21;53.13;97376.47;5057875;28;20187;-69
2021/05/30 01:56:59;;;;;;;3.27;3.00;;;;;;;12.38;52.74;97370.28;5054142;28;20449;-69
2021/05/30 01:59:26;;;;;;;4.63;3.03;;;;;;;12.39;52.72;97366.66;5036190;28;20638;-70
2021/05/30 02:01:57;;;;;;;2.83;2.63;;;;;;;12.53;52.51;97377.56;5055108;28;20955;-67
2021/05/30 02:04:27;;;;;;;3.30;3.00;;;;;;;12.61;52.26;97372.31;5053816;28;20457;-70
2021/05/30 02:06:53;;;;;;;4.50;3.13;;;;;;;12.64;52.08;97369.34;5052326;28;20437;-69
2021/05/30 02:09:19;;;;;;;3.80;3.03;;;;;;;12.67;52.00;97370.81;5052602;28;20471;-69
2021/05/30 02:11:45;;;;;;;3.70;3.30;;;;;;;12.58;51.80;97370.00;5052316;28;20516;-70
2021/05/30 02:14:13;;;;;;;3.37;3.07;;;;;;;12.63;51.73;97364.28;5053157;28;20456;-69
2021/05/30 02:16:38;;;;;;;3.20;2.90;;;;;;;12.70;51.51;97367.88;5053797;28;20670;-69
2021/05/30 02:19:04;;;;;;;2.80;2.60;;;;;;;12.71;51.67;97373.00;5052917;28;20949;-69
2021/05/30 02:21:49;;;;;;;5.73;3.27;;;;;;;12.74;51.35;97367.41;5049742;28;20191;-69
2021/05/30 02:24:16;;;;;;;3.40;3.10;;;;;;;12.73;51.17;97370.19;5052270;28;20187;-69
2021/05/30 02:26:42;;;;;;;3.57;3.00;;;;;;;12.72;51.26;97372.03;5052578;28;21064;-69
2021/05/30 02:29:08;;;;;;;3.50;3.17;;;;;;;12.69;51.28;97368.88;5053261;28;20781;-70
2021/05/30 02:31:34;;;;;;;6.70;3.00;;;;;;;12.65;51.29;97371.00;5053101;28;20429;-70
2021/05/30 02:34:00;;;;;;;4.33;3.60;;;;;;;12.44;51.84;97374.91;5051998;28;20568;-69
2021/05/30 02:36:27;;;;;;;3.40;3.10;;;;;;;12.36;52.49;97380.13;5052798;28;20537;-70
2021/05/30 02:38:54;;;;;;;4.80;3.30;;;;;;;12.46;52.09;97385.25;5053377;28;20186;-69
2021/05/30 02:41:19;;;;;;;3.60;2.77;;;;;;;12.48;52.05;97372.78;5053326;28;20482;-69
2021/05/30 02:43:47;;;;;;;3.37;3.07;;;;;;;12.47;51.85;97383.47;5052690;28;20520;-70
2021/05/30 02:46:13;;;;;;;4.00;3.20;;;;;;;12.44;51.79;97382.78;5044590;28;20299;-70
2021/05/30 02:48:38;;;;;;;4.30;3.90;;;;;;;12.40;52.17;97381.47;5051871;28;20575;-69
2021/05/30 02:51:04;;;;;;;3.70;3.33;;;;;;;12.41;52.30;97377.03;5050974;28;20193;-68
2021/05/30 02:53:32;;;;;;;4.27;3.80;;;;;;;12.32;52.45;97383.22;5051335;28;20189;-69
2021/05/30 02:55:58;;;;;;;4.33;3.33;;;;;;;12.36;52.48;97385.38;5051393;28;20716;-69
2021/05/30 02:58:26;;;;;;;6.27;3.53;;;;;;;12.38;52.08;97383.41;5051818;28;20428;-68
2021/05/30 03:00:52;;;;;;;4.70;3.80;;;;;;;12.34;52.11;97387.38;5052969;28;20429;-69
2021/05/30 03:03:18;;;;;;;3.60;3.30;;;;;;;12.33;52.08;97390.13;5052260;28;20810;-69
2021/05/30 03:05:44;;;;;;;3.47;3.17;;;;;;;12.31;52.27;97386.84;5051677;28;20473;-69
2021/05/30 03:08:09;;;;;;;4.60;3.23;;;;;;;12.28;52.43;97390.63;5031912;28;20195;-68
2021/05/30 03:10:35;;;;;;;4.50;3.10;;;;;;;12.26;52.70;97392.56;5051680;28;20549;-70
2021/05/30 03:13:01;;;;;;;5.80;3.93;;;;;;;12.22;52.75;97388.63;5061396;28;20685;-69
2021/05/30 03:15:26;;;;;;;3.80;3.17;;;;;;;12.20;52.57;97395.84;5049358;28;20187;-70
2021/05/30 03:17:52;;;;;;;3.97;3.57;;;;;;;12.18;52.91;97392.53;5038558;28;20225;-68
2021/05/30 03:20:18;;;;;;;4.20;3.67;;;;;;;12.14;53.04;97392.84;5031397;28;20274;-68
2021/05/30 03:22:44;;;;;;;3.70;3.20;;;;;;;12.14;52.60;97403.38;5032680;28;20439;-68
2021/05/30 03:25:10;;;;;;;4.10;3.70;;;;;;;12.10;52.66;97388.88;5044741;28;20218;-68
2021/05/30 03:27:36;;;;;;;4.03;3.23;;;;;;;12.05;53.03;97392.97;5060069;28;20239;-69
2021/05/30 03:30:02;;;;;;;6.27;4.03;;;;;;;12.02;53.47;97395.94;5025015;28;20450;-69
2021/05/30 03:32:28;;;;;;;4.17;3.40;;;;;;;12.00;53.40;97396.06;5039262;28;20440;-69
2021/05/30 03:34:54;;;;;;;6.13;3.77;;;;;;;12.00;53.08;97396.06;5032215;28;20423;-68
2021/05/30 03:37:19;;;;;;;3.73;3.30;;;;;;;11.98;53.50;97398.88;5035305;28;20634;-69
2021/05/30 03:39:46;;;;;;;4.50;3.70;;;;;;;11.98;53.33;97398.03;5046002;28;20212;-68
2021/05/30 03:42:23;;;;;;;5.97;3.60;;;;;;;11.98;53.44;97398.03;5032081;28;20203;-69
2021/05/30 03:44:48;;;;;;;4.03;3.50;;;;;;;11.98;53.71;97392.78;5032996;28;20468;-68
2021/05/30 03:47:14;;;;;;;6.20;3.90;;;;;;;12.00;53.65;97396.06;5033324;28;20442;-68
2021/05/30 03:49:40;;;;;;;5.00;3.93;;;;;;;12.03;53.45;97389.69;5039105;28;20178;-69
2021/05/30 03:52:07;;;;;;;5.17;3.97;;;;;;;12.04;53.31;97394.78;5042651;28;20180;-69
2021/05/30 03:54:32;;;;;;;7.73;3.97;;;;;;;12.05;53.45;97393.81;5032287;28;20442;-69
2021/05/30 03:56:58;;;;;;;4.33;3.93;;;;;;;12.07;53.43;97402.34;5034418;28;20442;-68
2021/05/30 03:59:24;;;;;;;4.07;3.67;;;;;;;12.09;53.33;97399.56;5031523;28;20209;-68
2021/05/30 04:01:49;;;;;;;5.37;3.80;;;;;;;12.10;53.49;97393.34;5034208;28;20195;-69
2021/05/30 04:04:15;;;;;;;4.73;3.70;;;;;;;12.12;53.53;97394.81;5028394;28;20184;-69
2021/05/30 04:06:40;;;;;;;4.40;3.73;;;;;;;12.14;53.44;97400.75;5034379;28;20212;-69
2021/05/30 04:09:06;;;;;;;4.57;4.17;;;;;;;12.18;53.34;97400.44;5031876;28;20208;-69
2021/05/30 04:11:32;;;;;;;3.97;3.50;;;;;;;12.24;53.59;97400.63;5032109;28;20599;-69
2021/05/30 04:13:57;;;;;;;5.77;4.27;;;;;;;12.27;53.53;97404.72;5031391;28;20210;-71
2021/05/30 04:16:23;;;;;;;5.23;3.97;;;;;;;12.33;53.23;97405.91;5032705;28;20252;-68
2021/05/30 04:18:48;;;;;;;5.17;4.50;;;;;;;12.36;53.35;97405.59;5031753;28;20258;-69
2021/05/30 04:21:14;;;;;;;5.80;3.97;;;;;;;12.42;53.11;97400.53;5029761;28;20194;-69
2021/05/30 04:23:39;;;;;;;5.73;4.80;;;;;;;12.49;53.38;97399.88;5037118;28;20194;-67
2021/05/30 04:26:05;;;;;;;7.90;4.47;;;;;;;12.53;53.13;97403.84;5030756;28;20250;-68
2021/05/30 04:28:31;;;;;;;5.47;4.80;;;;;;;12.57;53.22;97403.34;5031311;28;20669;-67
2021/05/30 04:30:56;;;;;;;6.50;4.87;;;;;;;12.66;53.01;97398.13;5031579;28;20179;-68
2021/05/30 04:33:22;;;;;;;5.17;4.13;;;;;;;12.74;52.78;97396.31;5029284;28;20221;-69
2021/05/30 04:35:48;;;;;;;4.63;4.17;;;;;;;12.80;53.05;97401.94;5031486;28;20183;-68
2021/05/30 04:38:14;;;;;;;5.33;4.43;;;;;;;12.88;52.43;97394.03;5031107;28;20179;-70
2021/05/30 04:40:40;;;;;;;5.30;4.80;;;;;;;12.94;52.47;97403.94;5030767;28;20434;-69
2021/05/30 04:43:05;;;;;;;5.90;4.27;;;;;;;13.00;52.07;97400.63;5030887;28;20669;-70
2021/05/30 04:45:31;;;;;;;4.70;4.30;;;;;;;13.01;52.02;97404.91;5029494;28;20218;-68
2021/05/30 04:47:57;;;;;;;5.50;5.00;;;;;;;13.04;52.23;97398.53;5032310;28;20188;-68
2021/05/30 04:50:22;;;;;;;5.57;5.00;;;;;;;13.15;52.30;97398.19;5023529;28;20183;-69
2021/05/30 04:52:48;;;;;;;7.40;5.03;;;;;;;13.20;51.93;97397.72;5029112;28;20242;-69
2021/05/30 04:55:13;;;;;;;5.07;4.57;;;;;;;13.28;51.48;97395.06;5030104;28;20275;-73
2021/05/30 04:57:40;;;;;;;5.63;4.40;;;;;;;13.34;51.43;97399.69;5030730;28;20277;-68
2021/05/30 05:00:07;;;;;;;5.03;4.53;;;;;;;13.57;50.87;97392.94;5030873;28;20540;-69
2021/05/30 05:02:33;;;;;;;9.67;4.77;;;;;;;12.99;52.29;97391.09;5031069;28;20426;-68
2021/05/30 05:04:58;;;;;;;5.20;4.20;;;;;;;13.37;51.52;97391.44;5030092;28;20514;-69
2021/05/30 05:07:24;;;;;;;7.90;4.90;;;;;;;13.50;50.94;97398.03;5049001;28;20214;-68
2021/05/30 05:09:49;;;;;;;7.27;4.80;;;;;;;13.14;51.66;97393.09;5039342;28;20237;-69
2021/05/30 05:12:15;;;;;;;5.93;4.60;;;;;;;13.22;51.88;97398.38;5030529;28;20613;-68
2021/05/30 05:14:40;;;;;;;5.57;5.07;;;;;;;13.67;50.86;97393.59;5030793;28;20175;-69
2021/05/30 05:17:06;;;;;;;4.63;4.23;;;;;;;13.82;50.69;97401.63;5028502;28;20257;-68
2021/05/30 05:19:32;;;;;;;5.80;4.57;;;;;;;13.99;50.34;97399.78;5030515;28;20184;-69
2021/05/30 05:21:57;;;;;;;4.90;4.20;;;;;;;14.21;50.50;97395.59;5030600;28;20191;-69
2021/05/30 05:24:23;;;;;;;5.37;4.87;;;;;;;14.39;50.35;97397.97;5029338;28;20184;-69
2021/05/30 05:26:49;;;;;;;5.30;4.53;;;;;;;14.69;49.77;97392.88;5038874;28;20655;-67
2021/05/30 05:29:14;;;;;;;7.03;4.30;;;;;;;14.73;48.21;97393.38;5049502;28;20190;-68
2021/05/30 05:31:40;;;;;;;6.90;4.83;;;;;;;14.78;48.36;97396.31;5048950;28;20332;-69
2021/05/30 05:34:06;;;;;;;5.43;4.47;;;;;;;14.86;47.53;97393.63;5042034;28;20222;-69
2021/05/30 05:36:31;;;;;;;10.73;6.40;;;;;;;15.06;47.43;97398.44;5049650;28;20210;-68
2021/05/30 05:38:57;;;;;;;4.90;3.90;;;;;;;14.89;47.95;97395.09;5053617;28;20187;-68
2021/05/30 05:41:22;;;;;;;9.70;5.03;;;;;;;15.25;46.97;97396.34;5054314;28;20195;-69
2021/05/30 05:43:48;;;;;;;6.30;4.60;;;;;;;15.09;47.37;97398.09;5052112;28;20552;-71
2021/05/30 05:46:13;;;;;;;10.53;6.97;;;;;;;15.41;46.50;97398.00;5052321;28;20219;-68
2021/05/30 05:48:39;;;;;;;4.60;4.20;;;;;;;15.48;46.53;97397.13;5051271;28;20187;-69
2021/05/30 05:51:05;;;;;;;22.63;9.00;;;;;;;15.22;46.21;97397.50;5050709;28;20228;-68
2021/05/30 05:53:30;;;;;;;22.13;10.10;;;;;;;15.51;45.48;97399.38;5053788;28;20828;-68
2021/05/30 05:55:56;;;;;;;26.43;12.00;;;;;;;15.36;46.23;97398.53;5047408;28;20272;-68
2021/05/30 05:58:22;;;;;;;22.13;9.63;;;;;;;15.69;46.21;97405.34;5053984;28;20433;-68
2021/05/30 06:00:47;;;;;;;36.13;16.17;;;;;;;15.61;46.39;97406.25;5054411;28;20183;-68
2021/05/30 06:03:13;;;;;;;4.40;4.00;;;;;;;15.79;45.32;97404.06;5053035;28;20190;-69
2021/05/30 06:05:39;;;;;;;7.60;4.80;;;;;;;16.03;44.94;97409.31;5044657;28;20679;-68
2021/05/30 06:08:04;;;;;;;5.10;4.37;;;;;;;16.08;45.04;97394.56;5050959;28;20183;-69
2021/05/30 06:10:30;;;;;;;4.80;4.30;;;;;;;16.47;43.80;97397.06;5051026;28;20249;-68
2021/05/30 06:13:02;;;;;;;4.47;3.60;;;;;;;16.65;43.53;97401.97;5045311;28;20183;-69
2021/05/30 06:15:28;;;;;;;43.10;18.90;;;;;;;16.54;44.05;97400.59;5038377;28;20179;-69
2021/05/30 06:17:59;;;;;;;16.83;9.17;;;;;;;16.42;44.03;97403.72;5054348;28;20804;-70
2021/05/30 06:20:26;;;;;;;13.30;7.40;;;;;;;16.62;43.83;97400.53;5053876;28;20453;-67
2021/05/30 06:22:52;;;;;;;8.80;4.70;;;;;;;16.98;42.31;97399.69;5048498;28;20432;-68
2021/05/30 06:25:18;;;;;;;4.90;4.23;;;;;;;16.93;43.00;97398.59;5046371;28;20476;-68
2021/05/30 06:27:44;;;;;;;6.63;5.57;;;;;;;17.11;43.23;97400.84;5053440;28;20520;-67
2021/05/30 06:30:10;;;;;;;7.00;4.00;;;;;;;17.10;42.78;97404.50;5053573;28;20191;-70
2021/05/30 06:32:36;;;;;;;6.73;4.37;;;;;;;17.26;41.55;97404.25;5053393;28;20197;-69
2021/05/30 06:35:02;;;;;;;8.37;5.63;;;;;;;17.29;41.64;97403.03;5053230;28;20500;-69
2021/05/30 06:37:28;;;;;;;4.07;3.67;;;;;;;17.11;41.42;97401.66;5051853;28;20203;-69
2021/05/30 06:39:53;;;;;;;3.90;3.50;;;;;;;17.54;40.17;97400.78;5053931;28;21013;-69
2021/05/30 06:42:19;;;;;;;7.80;4.67;;;;;;;17.70;40.54;97394.41;5053065;28;20195;-69
2021/05/30 06:44:45;;;;;;;4.53;3.80;;;;;;;17.85;40.14;97398.75;5052944;28;20211;-69
2021/05/30 06:47:11;;;;;;;4.20;3.47;;;;;;;17.94;39.31;97398.41;5053047;28;20242;-69
2021/05/30 06:49:42;;;;;;;3.77;3.43;;;;;;;18.17;39.09;97397.34;5053037;28;20422;-69
2021/05/30 06:52:08;;;;;;;10.00;5.43;;;;;;;18.43;38.69;97395.81;5027588;28;20488;-68
2021/05/30 06:54:34;;;;;;;3.57;3.27;;;;;;;18.22;38.33;97397.59;5049680;28;20426;-69
2021/05/30 06:57:00;;;;;;;3.73;3.30;;;;;;;17.80;37.68;97397.53;5032045;28;20217;-68
2021/05/30 06:59:25;;;;;;;26.67;16.37;;;;;;;17.66;38.34;97393.94;5053314;28;20187;-68
2021/05/30 07:01:51;;;;;;;9.27;5.53;;;;;;;17.90;37.86;97394.50;5053353;28;20183;-68
2021/05/30 07:04:16;;;;;;;4.50;3.70;;;;;;;17.81;37.50;97401.81;5052797;28;20190;-70
2021/05/30 07:06:42;;;;;;;4.80;3.63;;;;;;;17.76;36.61;97398.13;5052454;28;20268;-69
2021/05/30 07:09:07;;;;;;;9.00;4.70;;;;;;;17.66;36.94;97393.94;5052613;28;20622;-69
2021/05/30 07:11:34;;;;;;;5.53;2.87;;;;;;;17.93;36.20;97404.72;5053525;28;20220;-68
2021/05/30 07:13:59;;;;;;;8.37;5.37;;;;;;;17.77;36.31;97405.03;5052715;28;20190;-70
2021/05/30 07:16:25;;;;;;;8.30;3.90;;;;;;;17.59;36.42;97402.84;5052382;28;20955;-70
2021/05/30 07:18:51;;;;;;;2.90;2.70;;;;;;;18.00;35.68;97404.81;5050954;28;20183;-68
2021/05/30 07:21:17;;;;;;;5.30;3.13;;;;;;;17.87;36.06;97404.69;5044997;28;20191;-68
2021/05/30 07:23:42;;;;;;;3.20;2.80;;;;;;;18.50;34.85;97404.66;5052439;28;20183;-67
2021/05/30 07:26:08;;;;;;;3.83;3.40;;;;;;;18.15;34.98;97411.81;5046518;28;20294;-68
2021/05/30 07:28:34;;;;;;;7.57;3.50;;;;;;;18.75;34.20;97398.81;5052772;28;20626;-70
2021/05/30 07:30:59;;;;;;;6.27;3.50;;;;;;;18.39;34.62;97403.38;5056685;28;20417;-69
2021/05/30 07:33:25;;;;;;;4.10;3.00;;;;;;;18.37;34.84;97404.59;5058064;28;20277;-69
2021/05/30 07:35:50;;;;;;;3.90;3.20;;;;;;;18.80;33.97;97406.19;5047286;28;20604;-69
2021/05/30 07:38:16;;;;;;;5.13;2.90;;;;;;;18.45;34.95;97401.75;5046033;28;20210;-69
2021/05/30 07:40:42;;;;;;;3.33;3.03;;;;;;;18.84;33.72;97402.91;5047758;28;20670;-67
2021/05/30 07:43:07;;;;;;;3.50;2.73;;;;;;;18.55;33.79;97406.72;5036441;28;20231;-70
2021/05/30 07:45:33;;;;;;;2.80;2.60;;;;;;;18.61;34.70;97402.44;5049034;28;20205;-69
2021/05/30 07:47:59;;;;;;;4.70;3.40;;;;;;;18.59;34.50;97405.28;5047538;28;20203;-70
2021/05/30 07:50:25;;;;;;;3.30;2.43;;;;;;;18.65;33.69;97401.03;5032789;28;20422;-69
2021/05/30 07:52:51;;;;;;;2.87;2.60;;;;;;;18.94;33.12;97402.56;5032984;28;20218;-69
2021/05/30 07:55:17;;;;;;;3.90;2.70;;;;;;;19.18;32.75;97401.16;5031407;28;20706;-71
2021/05/30 07:57:47;;;;;;;2.50;2.30;;;;;;;19.81;32.38;97404.44;5037963;28;20231;-70
2021/05/30 08:00:16;;;;;;;3.47;2.77;;;;;;;19.71;32.93;97404.84;5041062;28;20436;-70
2021/05/30 08:02:46;;;;;;;2.93;2.70;;;;;;;19.56;32.34;97401.59;5043647;28;20426;-69
2021/05/30 08:05:16;;;;;;;4.70;2.73;;;;;;;19.48;32.40;97406.09;5048729;28;20457;-69
2021/05/30 08:07:42;;;;;;;2.80;2.60;;;;;;;19.38;31.54;97405.69;5049872;28;20461;-70
2021/05/30 08:10:08;;;;;;;2.63;2.43;;;;;;;19.65;32.47;97400.38;5049328;28;20551;-71
2021/05/30 08:12:34;;;;;;;3.03;2.67;;;;;;;19.93;32.46;97407.31;5050383;28;20767;-69
2021/05/30 08:14:59;;;;;;;5.60;3.40;;;;;;;19.57;34.16;97408.53;5051815;28;20578;-70
2021/05/30 08:17:25;;;;;;;5.00;3.47;;;;;;;19.79;34.41;97409.13;5050178;28;20241;-70
2021/05/30 08:19:50;;;;;;;3.80;3.50;;;;;;;19.62;34.91;97403.44;5051444;28;20214;-71
2021/05/30 08:22:16;;;;;;;3.27;3.00;;;;;;;19.62;34.00;97404.25;5047196;28;20660;-69
2021/05/30 08:24:43;;;;;;;3.53;3.23;;;;;;;18.03;37.00;97412.38;5046602;28;20219;-69
2021/05/30 08:27:10;;;;;;;3.73;3.33;;;;;;;19.31;35.13;97402.19;5044188;28;20482;-70
2021/05/30 08:29:36;;;;;;;6.30;3.50;;;;;;;19.64;34.46;97404.06;5049444;28;21014;-69
2021/05/30 08:32:03;;;;;;;4.10;2.93;;;;;;;19.97;33.47;97405.06;5050334;28;20560;-68
2021/05/30 08:34:29;;;;;;;3.30;2.93;;;;;;;20.36;31.96;97412.09;5050008;28;20198;-70
2021/05/30 08:36:55;;;;;;;4.10;2.73;;;;;;;20.14;31.81;97398.25;5050939;28;20454;-71
2021/05/30 08:39:21;;;;;;;3.37;2.33;;;;;;;20.42;30.20;97389.97;5050293;28;20547;-70
2021/05/30 08:41:46;;;;;;;5.83;2.50;;;;;;;20.31;30.20;97413.78;5052036;28;20203;-69
2021/05/30 08:44:12;;;;;;;3.77;2.60;;;;;;;20.53;30.56;97411.66;5050899;28;20436;-69
2021/05/30 08:46:39;;;;;;;3.40;2.80;;;;;;;20.85;29.28;97403.72;5051709;28;20222;-71
2021/05/30 08:49:07;;;;;;;5.63;2.57;;;;;;;20.71;29.02;97401.09;5032371;28;20526;-69
2021/05/30 08:51:39;;;;;;;2.47;2.27;;;;;;;20.40;28.96;97402.69;5050504;28;20794;-69
2021/05/30 08:54:23;;;;;;;4.93;2.47;;;;;;;20.65;27.98;97404.63;5050544;28;20425;-70
2021/05/30 08:56:49;;;;;;;3.47;2.60;;;;;;;20.56;28.99;97396.06;5024986;28;20504;-70
2021/05/30 08:59:27;;;;;;;2.60;2.40;;;;;;;20.58;28.28;97398.50;5050391;28;20932;-70
2021/05/30 09:01:54;;;;;;;2.60;2.40;;;;;;;20.75;28.55;97404.19;5051773;28;20186;-70
2021/05/30 09:04:34;;;;;;;4.03;2.80;;;;;;;21.35;27.76;97400.34;5050705;28;20429;-69
2021/05/30 09:07:01;;;;;;;3.37;2.50;;;;;;;21.46;27.52;97409.47;5052140;28;20451;-69
2021/05/30 09:09:35;;;;;;;2.43;2.23;;;;;;;20.97;27.97;97407.34;5049852;28;20444;-70
2021/05/30 09:12:00;;;;;;;3.10;2.43;;;;;;;20.68;28.65;97409.50;5051070;28;20498;-72
2021/05/30 09:14:31;;;;;;;4.00;2.53;;;;;;;21.28;27.72;97400.38;5054320;28;20425;-70
2021/05/30 09:17:01;;;;;;;4.10;2.43;;;;;;;21.16;27.45;97399.44;5054917;28;20211;-68
2021/05/30 09:19:29;;;;;;;6.77;2.70;;;;;;;20.50;26.61;97406.75;5038382;28;20491;-68
2021/05/30 09:22:15;;;;;;;2.67;2.10;;;;;;;20.96;26.19;97410.22;5041576;28;20430;-71
2021/05/30 09:24:42;;;;;;;3.10;2.63;;;;;;;20.82;26.76;97404.97;5030138;28;20797;-70
2021/05/30 09:27:09;;;;;;;3.47;2.30;;;;;;;20.58;27.33;97409.16;5018485;28;20449;-69
2021/05/30 09:29:34;;;;;;;3.50;2.40;;;;;;;21.22;26.75;97403.09;5054130;28;20749;-68
2021/05/30 09:32:00;;;;;;;3.30;2.20;;;;;;;21.61;26.35;97395.84;5052405;28;20508;-69
2021/05/30 09:34:29;;;;;;;3.33;2.43;;;;;;;21.91;26.33;97389.81;5054936;28;20199;-71
2021/05/30 09:36:55;;;;;;;2.57;2.37;;;;;;;21.59;27.27;97388.06;5036630;28;20260;-71
2021/05/30 09:39:38;;;;;;;2.77;2.50;;;;;;;22.11;26.54;97394.94;5054989;28;20418;-71
2021/05/30 09:42:31;;;;;;;4.13;2.40;;;;;;;21.97;27.59;97388.13;5054867;28;20944;-72
2021/05/30 09:44:59;;;;;;;2.50;2.30;;;;;;;22.13;26.47;97398.22;5055022;28;20876;-70
2021/05/30 09:47:38;;;;;;;4.73;2.43;;;;;;;21.73;26.79;97387.94;5055311;28;20457;-70
2021/05/30 09:50:06;;;;;;;5.07;2.70;;;;;;;22.22;26.87;97382.72;5050498;28;20829;-71
2021/05/30 09:52:39;;;;;;;3.53;2.70;;;;;;;22.86;25.70;97390.38;5053013;28;20437;-70
2021/05/30 09:55:15;;;;;;;3.10;2.60;;;;;;;22.78;25.62;97396.84;5047416;28;20418;-70
2021/05/30 09:57:41;;;;;;;4.67;2.60;;;;;;;22.65;25.89;97394.34;5053852;28;20479;-68
2021/05/30 10:00:22;;;;;;;2.50;2.30;;;;;;;22.25;26.63;97399.09;5046024;28;20433;-67
2021/05/30 10:02:48;;;;;;;2.90;2.70;;;;;;;22.65;27.27;97399.69;5056376;28;20202;-68
2021/05/30 10:05:14;;;;;;;2.77;2.57;;;;;;;20.83;29.37;97411.09;5054370;28;20827;-67
2021/05/30 10:07:40;;;;;;;4.13;2.60;;;;;;;20.40;29.74;97402.69;5035864;28;20210;-68
2021/05/30 10:10:06;;;;;;;3.10;2.73;;;;;;;20.75;29.67;97403.38;5052389;28;20606;-69
2021/05/30 10:12:32;;;;;;;5.57;3.47;;;;;;;21.62;28.79;97392.13;5053732;28;20520;-68
2021/05/30 10:14:57;;;;;;;3.20;2.70;;;;;;;20.52;30.00;97404.69;5053378;28;20772;-69
2021/05/30 10:17:23;;;;;;;3.20;2.90;;;;;;;21.32;28.85;97396.25;5055485;28;20215;-68
2021/05/30 10:19:49;;;;;;;3.70;2.83;;;;;;;21.60;28.53;97395.03;5053196;28;20253;-68
2021/05/30 10:22:17;;;;;;;3.23;2.97;;;;;;;21.62;28.42;97400.13;5048726;28;20252;-67
2021/05/30 10:24:44;;;;;;;4.70;2.87;;;;;;;21.54;28.35;97395.88;5048692;28;20481;-68
2021/05/30 10:27:24;;;;;;;8.20;3.10;;;;;;;20.23;29.76;97396.19;5051394;28;20881;-69
2021/05/30 10:30:07;;;;;;;4.83;2.90;;;;;;;20.72;29.43;97386.75;5054179;28;20912;-70
2021/05/30 10:32:38;;;;;;;4.60;2.23;;;;;;;21.25;27.82;97386.66;5042900;28;20435;-68
2021/05/30 10:35:30;;;;;;;2.80;2.60;;;;;;;22.08;26.91;97382.03;5060581;28;20789;-69
2021/05/30 10:37:57;;;;;;;3.20;2.60;;;;;;;23.05;25.85;97376.94;5044344;28;20453;-69
2021/05/30 10:40:22;;;;;;;3.73;2.53;;;;;;;23.35;25.86;97376.91;5039009;28;20477;-68
2021/05/30 10:43:10;;;;;;;3.50;2.50;;;;;;;23.27;24.74;97386.06;5057620;28;20417;-68
2021/05/30 10:45:41;;;;;;;2.83;2.43;;;;;;;23.50;25.32;97383.66;5044038;28;20238;-68
2021/05/30 10:48:07;;;;;;;4.87;2.70;;;;;;;23.21;25.70;97383.50;5059618;28;20429;-69
2021/05/30 10:53:43;;;;;;;2.67;2.47;;;;;;;22.05;26.99;97393.97;5039173;28;20199;-68
2021/05/30 10:56:17;;;;;;;3.10;2.80;;;;;;;23.19;25.74;97378.38;5056081;28;20824;-69
2021/05/30 10:58:43;;;;;;;3.10;2.80;;;;;;;23.27;25.20;97386.06;5060311;28;20453;-69
2021/05/30 11:01:34;;;;;;;4.70;2.70;;;;;;;20.95;28.41;97387.28;5045958;28;20507;-68
2021/05/30 11:04:29;;;;;;;8.67;3.03;;;;;;;21.84;26.80;97389.88;5061550;28;20440;-68
2021/05/30 11:07:01;;;;;;;2.87;2.67;;;;;;;22.05;26.42;97380.63;5062156;28;20873;-69
2021/05/30 11:09:49;;;;;;;3.00;2.60;;;;;;;22.62;25.88;97374.22;5054497;28;20430;-68
2021/05/30 11:12:26;;;;;;;4.40;2.87;;;;;;;22.23;25.86;97365.66;5052407;28;20422;-68
2021/05/30 11:15:11;;;;;;;2.93;2.40;;;;;;;22.70;25.79;97373.94;5036525;28;20475;-69
2021/05/30 11:17:37;;;;;;;6.03;2.50;;;;;;;22.01;25.94;97366.09;5054178;28;20444;-68
2021/05/30 11:20:11;;;;;;;3.27;2.80;;;;;;;22.38;25.56;97373.28;5061379;28;20429;-69
2021/05/30 11:22:56;;;;;;;3.00;2.70;;;;;;;21.73;25.98;97371.94;5038418;28;20447;-68
2021/05/30 11:25:50;;;;;;;5.57;2.73;;;;;;;22.14;25.55;97365.16;5054386;28;20489;-68
2021/05/30 11:28:22;;;;;;;11.13;2.80;;;;;;;22.96;24.66;97355.91;5046979;28;20491;-67
2021/05/30 11:30:53;;;;;;;2.80;2.60;;;;;;;23.38;23.78;97360.41;5058906;28;20495;-67
2021/05/30 11:33:21;;;;;;;3.07;2.43;;;;;;;21.36;25.78;97361.16;5058489;28;20839;-68
2021/05/30 11:35:55;;;;;;;2.97;2.70;;;;;;;21.51;26.76;97364.31;5059034;28;20421;-70
2021/05/30 11:38:36;;;;;;;2.63;2.43;;;;;;;22.04;25.93;97373.66;5052094;28;20418;-67
2021/05/30 11:41:13;;;;;;;3.37;3.07;;;;;;;21.81;26.20;97366.31;5060158;28;20429;-68